sensor_id;sensor_type;location;lat;lon;timestamp;temperature;humidity
1011;DHT22;494;48.744;10.106;2023-12-28T00:00:23;3.80;1.00
1011;DHT22;494;48.744;10.106;2023-12-28T00:02:54;3.80;1.00
1011;DHT22;494;48.744;10.106;2023-12-28T00:05:23;3.80;1.00
1011;DHT22;494;48.744;10.106;2023-12-28T00:07:52;4.00;1.00
1011;DHT22;494;48.744;10.106;2023-12-28T00:10:26;3.80;1.00
1011;DHT22;494;48.744;10.106;2023-12-28T00:12:55;3.90;1.00
1011;DHT22;494;48.744;10.106;2023-12-28T00:15:25;3.80;1.00
1011;DHT22;494;48.744;10.106;2023-12-28T00:17:56;3.80;1.00
1011;DHT22;494;48.744;10.106;2023-12-28T00:20:25;3.80;1.00
1011;DHT22;494;48.744;10.106;2023-12-28T00:22:54;3.80;1.00
1011;DHT22;494;48.744;10.106;2023-12-28T00:25:22;3.90;1.00
1011;DHT22;494;48.744;10.106;2023-12-28T00:27:51;3.70;1.00
1011;DHT22;494;48.744;10.106;2023-12-28T00:30:19;3.70;1.00
1011;DHT22;494;48.744;10.106;2023-12-28T00:32:48;3.80;1.00
1011;DHT22;494;48.744;10.106;2023-12-28T00:35:19;3.60;1.00
1011;DHT22;494;48.744;10.106;2023-12-28T00:37:48;3.70;1.00
1011;DHT22;494;48.744;10.106;2023-12-28T00:40:17;3.60;1.00
1011;DHT22;494;48.744;10.106;2023-12-28T00:42:45;3.60;1.00
1011;DHT22;494;48.744;10.106;2023-12-28T00:45:15;3.60;1.00
1011;DHT22;494;48.744;10.106;2023-12-28T00:47:44;3.60;1.00
1011;DHT22;494;48.744;10.106;2023-12-28T00:50:12;3.60;1.00
1011;DHT22;494;48.744;10.106;2023-12-28T00:52:43;3.60;1.00
1011;DHT22;494;48.744;10.106;2023-12-28T00:55:12;3.60;1.00
1011;DHT22;494;48.744;10.106;2023-12-28T00:57:40;3.60;1.00
1011;DHT22;494;48.744;10.106;2023-12-28T01:00:10;3.60;1.00
1011;DHT22;494;48.744;10.106;2023-12-28T01:02:40;3.70;1.00
1011;DHT22;494;48.744;10.106;2023-12-28T01:05:09;3.70;1.00
1011;DHT22;494;48.744;10.106;2023-12-28T01:07:38;3.70;1.00
1011;DHT22;494;48.744;10.106;2023-12-28T01:10:08;3.70;1.00
1011;DHT22;494;48.744;10.106;2023-12-28T01:12:37;3.70;1.00
1011;DHT22;494;48.744;10.106;2023-12-28T01:15:06;3.80;1.00
1011;DHT22;494;48.744;10.106;2023-12-28T01:17:35;3.70;1.00
1011;DHT22;494;48.744;10.106;2023-12-28T01:20:05;3.70;1.00
1011;DHT22;494;48.744;10.106;2023-12-28T01:22:35;3.70;1.00
1011;DHT22;494;48.744;10.106;2023-12-28T01:25:05;3.90;1.00
1011;DHT22;494;48.744;10.106;2023-12-28T01:27:37;3.70;1.00
1011;DHT22;494;48.744;10.106;2023-12-28T01:30:07;3.80;1.00
1011;DHT22;494;48.744;10.106;2023-12-28T01:32:36;3.70;1.00
1011;DHT22;494;48.744;10.106;2023-12-28T01:35:05;3.60;1.00
1011;DHT22;494;48.744;10.106;2023-12-28T01:37:35;3.60;1.00
1011;DHT22;494;48.744;10.106;2023-12-28T01:40:06;3.60;1.00
1011;DHT22;494;48.744;10.106;2023-12-28T01:42:37;3.70;1.00
1011;DHT22;494;48.744;10.106;2023-12-28T01:45:07;3.60;1.00
1011;DHT22;494;48.744;10.106;2023-12-28T01:47:36;3.60;1.00
1011;DHT22;494;48.744;10.106;2023-12-28T01:50:06;3.60;1.00
1011;DHT22;494;48.744;10.106;2023-12-28T01:52:36;3.60;1.00
1011;DHT22;494;48.744;10.106;2023-12-28T01:55:07;3.30;1.00
1011;DHT22;494;48.744;10.106;2023-12-28T01:57:38;3.30;1.00
1011;DHT22;494;48.744;10.106;2023-12-28T02:00:08;3.30;1.00
1011;DHT22;494;48.744;10.106;2023-12-28T02:02:37;3.40;1.00
1011;DHT22;494;48.744;10.106;2023-12-28T02:05:06;3.40;1.00
1011;DHT22;494;48.744;10.106;2023-12-28T02:07:36;3.40;1.00
1011;DHT22;494;48.744;10.106;2023-12-28T02:10:06;3.40;1.00
1011;DHT22;494;48.744;10.106;2023-12-28T02:12:35;3.40;1.00
1011;DHT22;494;48.744;10.106;2023-12-28T02:15:08;3.30;1.00
1011;DHT22;494;48.744;10.106;2023-12-28T02:17:43;3.20;1.00
1011;DHT22;494;48.744;10.106;2023-12-28T02:20:19;3.20;1.00
1011;DHT22;494;48.744;10.106;2023-12-28T02:22:50;3.30;1.00
1011;DHT22;494;48.744;10.106;2023-12-28T02:25:22;3.30;1.00
1011;DHT22;494;48.744;10.106;2023-12-28T02:27:51;3.30;1.00
1011;DHT22;494;48.744;10.106;2023-12-28T02:30:22;3.30;1.00
1011;DHT22;494;48.744;10.106;2023-12-28T02:33:05;3.30;1.00
1011;DHT22;494;48.744;10.106;2023-12-28T02:35:42;3.30;1.00
1011;DHT22;494;48.744;10.106;2023-12-28T02:38:14;3.30;1.00
1011;DHT22;494;48.744;10.106;2023-12-28T02:40:45;3.30;1.00
1011;DHT22;494;48.744;10.106;2023-12-28T02:43:17;3.30;1.00
1011;DHT22;494;48.744;10.106;2023-12-28T02:45:45;3.30;1.00
1011;DHT22;494;48.744;10.106;2023-12-28T02:48:14;3.30;1.00
1011;DHT22;494;48.744;10.106;2023-12-28T02:50:43;3.30;1.00
1011;DHT22;494;48.744;10.106;2023-12-28T02:53:13;3.20;1.00
1011;DHT22;494;48.744;10.106;2023-12-28T02:55:42;3.40;1.00
1011;DHT22;494;48.744;10.106;2023-12-28T02:58:13;3.20;1.00
1011;DHT22;494;48.744;10.106;2023-12-28T03:00:42;3.10;1.00
1011;DHT22;494;48.744;10.106;2023-12-28T03:03:12;3.00;1.00
1011;DHT22;494;48.744;10.106;2023-12-28T03:05:41;3.10;1.00
1011;DHT22;494;48.744;10.106;2023-12-28T03:08:09;3.00;1.00
1011;DHT22;494;48.744;10.106;2023-12-28T03:10:39;3.00;1.00
1011;DHT22;494;48.744;10.106;2023-12-28T03:13:07;2.80;1.00
1011;DHT22;494;48.744;10.106;2023-12-28T03:15:37;2.80;1.00
1011;DHT22;494;48.744;10.106;2023-12-28T03:18:06;2.80;1.00
1011;DHT22;494;48.744;10.106;2023-12-28T03:20:35;2.70;1.00
1011;DHT22;494;48.744;10.106;2023-12-28T03:23:04;2.80;1.00
1011;DHT22;494;48.744;10.106;2023-12-28T03:25:32;2.80;1.00
1011;DHT22;494;48.744;10.106;2023-12-28T03:28:01;2.70;1.00
1011;DHT22;494;48.744;10.106;2023-12-28T03:30:30;2.90;1.00
1011;DHT22;494;48.744;10.106;2023-12-28T03:33:00;2.80;1.00
1011;DHT22;494;48.744;10.106;2023-12-28T03:35:29;2.80;1.00
1011;DHT22;494;48.744;10.106;2023-12-28T03:37:57;2.80;1.00
1011;DHT22;494;48.744;10.106;2023-12-28T03:40:27;2.60;1.00
1011;DHT22;494;48.744;10.106;2023-12-28T03:42:55;2.70;1.00
1011;DHT22;494;48.744;10.106;2023-12-28T03:45:24;2.80;1.00
1011;DHT22;494;48.744;10.106;2023-12-28T03:47:53;2.70;1.00
1011;DHT22;494;48.744;10.106;2023-12-28T03:50:24;2.70;1.00
1011;DHT22;494;48.744;10.106;2023-12-28T03:52:52;2.70;1.00
1011;DHT22;494;48.744;10.106;2023-12-28T03:55:21;2.70;1.00
1011;DHT22;494;48.744;10.106;2023-12-28T03:57:49;2.70;1.00
1011;DHT22;494;48.744;10.106;2023-12-28T04:00:19;2.60;1.00
1011;DHT22;494;48.744;10.106;2023-12-28T04:02:48;2.70;1.00
1011;DHT22;494;48.744;10.106;2023-12-28T04:05:17;2.70;1.00
1011;DHT22;494;48.744;10.106;2023-12-28T04:07:47;2.70;1.00
1011;DHT22;494;48.744;10.106;2023-12-28T04:10:28;2.80;1.00
1011;DHT22;494;48.744;10.106;2023-12-28T04:12:59;2.70;1.00
1011;DHT22;494;48.744;10.106;2023-12-28T04:15:28;2.70;1.00
1011;DHT22;494;48.744;10.106;2023-12-28T04:17:57;2.70;1.00
1011;DHT22;494;48.744;10.106;2023-12-28T04:20:26;2.80;1.00
1011;DHT22;494;48.744;10.106;2023-12-28T04:22:56;2.70;1.00
1011;DHT22;494;48.744;10.106;2023-12-28T04:25:25;2.90;1.00
1011;DHT22;494;48.744;10.106;2023-12-28T04:27:53;2.80;1.00
1011;DHT22;494;48.744;10.106;2023-12-28T04:30:23;2.90;1.00
1011;DHT22;494;48.744;10.106;2023-12-28T04:32:52;3.00;1.00
1011;DHT22;494;48.744;10.106;2023-12-28T04:35:20;2.90;1.00
1011;DHT22;494;48.744;10.106;2023-12-28T04:37:49;2.80;1.00
1011;DHT22;494;48.744;10.106;2023-12-28T04:40:19;2.80;1.00
1011;DHT22;494;48.744;10.106;2023-12-28T04:42:48;2.70;1.00
1011;DHT22;494;48.744;10.106;2023-12-28T04:45:17;2.70;1.00
1011;DHT22;494;48.744;10.106;2023-12-28T04:47:45;2.70;1.00
1011;DHT22;494;48.744;10.106;2023-12-28T04:50:15;2.80;1.00
1011;DHT22;494;48.744;10.106;2023-12-28T04:52:43;2.60;1.00
1011;DHT22;494;48.744;10.106;2023-12-28T04:55:13;2.60;1.00
1011;DHT22;494;48.744;10.106;2023-12-28T04:57:44;2.60;1.00
1011;DHT22;494;48.744;10.106;2023-12-28T05:00:14;2.60;1.00
1011;DHT22;494;48.744;10.106;2023-12-28T05:02:43;2.70;1.00
1011;DHT22;494;48.744;10.106;2023-12-28T05:05:12;2.70;1.00
1011;DHT22;494;48.744;10.106;2023-12-28T05:07:40;2.70;1.00
1011;DHT22;494;48.744;10.106;2023-12-28T05:10:09;2.80;1.00
1011;DHT22;494;48.744;10.106;2023-12-28T05:12:38;2.80;1.00
1011;DHT22;494;48.744;10.106;2023-12-28T05:15:12;2.80;1.00
1011;DHT22;494;48.744;10.106;2023-12-28T05:17:41;2.90;1.00
1011;DHT22;494;48.744;10.106;2023-12-28T05:20:11;3.00;1.00
1011;DHT22;494;48.744;10.106;2023-12-28T05:22:39;2.90;1.00
1011;DHT22;494;48.744;10.106;2023-12-28T05:25:08;3.00;1.00
1011;DHT22;494;48.744;10.106;2023-12-28T05:27:36;3.10;1.00
1011;DHT22;494;48.744;10.106;2023-12-28T05:30:06;3.30;1.00
1011;DHT22;494;48.744;10.106;2023-12-28T05:32:37;3.30;1.00
1011;DHT22;494;48.744;10.106;2023-12-28T05:35:07;3.40;1.00
1011;DHT22;494;48.744;10.106;2023-12-28T05:37:36;3.40;1.00
1011;DHT22;494;48.744;10.106;2023-12-28T05:40:06;3.50;1.00
1011;DHT22;494;48.744;10.106;2023-12-28T05:42:36;3.50;1.00
1011;DHT22;494;48.744;10.106;2023-12-28T05:45:06;3.50;1.00
1011;DHT22;494;48.744;10.106;2023-12-28T05:47:37;3.40;1.00
1011;DHT22;494;48.744;10.106;2023-12-28T05:50:07;3.50;1.00
1011;DHT22;494;48.744;10.106;2023-12-28T05:52:37;3.50;1.00
1011;DHT22;494;48.744;10.106;2023-12-28T05:55:07;3.40;1.00
1011;DHT22;494;48.744;10.106;2023-12-28T05:57:36;3.60;1.00
1011;DHT22;494;48.744;10.106;2023-12-28T06:00:06;3.60;1.00
1011;DHT22;494;48.744;10.106;2023-12-28T06:02:38;3.70;1.00
1011;DHT22;494;48.744;10.106;2023-12-28T06:05:07;3.80;1.00
1011;DHT22;494;48.744;10.106;2023-12-28T06:07:37;3.80;1.00
1011;DHT22;494;48.744;10.106;2023-12-28T06:10:06;3.80;1.00
1011;DHT22;494;48.744;10.106;2023-12-28T06:12:36;3.90;1.00
1011;DHT22;494;48.744;10.106;2023-12-28T06:15:06;4.00;1.00
1011;DHT22;494;48.744;10.106;2023-12-28T06:17:35;4.00;1.00
1011;DHT22;494;48.744;10.106;2023-12-28T06:20:06;4.00;1.00
1011;DHT22;494;48.744;10.106;2023-12-28T06:22:37;4.00;1.00
1011;DHT22;494;48.744;10.106;2023-12-28T06:25:06;4.00;1.00
1011;DHT22;494;48.744;10.106;2023-12-28T06:27:37;4.00;1.00
1011;DHT22;494;48.744;10.106;2023-12-28T06:30:07;4.10;1.00
1011;DHT22;494;48.744;10.106;2023-12-28T06:32:37;4.00;1.00
1011;DHT22;494;48.744;10.106;2023-12-28T06:35:09;4.20;1.00
1011;DHT22;494;48.744;10.106;2023-12-28T06:37:38;4.20;1.00
1011;DHT22;494;48.744;10.106;2023-12-28T06:40:18;4.20;1.00
1011;DHT22;494;48.744;10.106;2023-12-28T06:42:46;4.20;1.00
1011;DHT22;494;48.744;10.106;2023-12-28T06:45:15;4.20;1.00
1011;DHT22;494;48.744;10.106;2023-12-28T06:47:44;4.20;1.00
1011;DHT22;494;48.744;10.106;2023-12-28T06:50:15;4.30;1.00
1011;DHT22;494;48.744;10.106;2023-12-28T06:52:44;4.30;1.00
1011;DHT22;494;48.744;10.106;2023-12-28T06:55:13;4.40;1.00
1011;DHT22;494;48.744;10.106;2023-12-28T06:57:42;4.40;1.00
1011;DHT22;494;48.744;10.106;2023-12-28T07:00:11;4.40;1.00
1011;DHT22;494;48.744;10.106;2023-12-28T07:02:41;4.40;1.00
1011;DHT22;494;48.744;10.106;2023-12-28T07:05:10;4.40;1.00
1011;DHT22;494;48.744;10.106;2023-12-28T07:07:42;4.50;1.00
1011;DHT22;494;48.744;10.106;2023-12-28T07:10:11;4.60;1.00
1011;DHT22;494;48.744;10.106;2023-12-28T07:12:40;4.50;1.00
1011;DHT22;494;48.744;10.106;2023-12-28T07:15:09;4.50;1.00
1011;DHT22;494;48.744;10.106;2023-12-28T07:17:41;4.40;1.00
1011;DHT22;494;48.744;10.106;2023-12-28T07:20:10;4.40;1.00
1011;DHT22;494;48.744;10.106;2023-12-28T07:22:39;4.40;1.00
1011;DHT22;494;48.744;10.106;2023-12-28T07:25:10;4.50;1.00
1011;DHT22;494;48.744;10.106;2023-12-28T07:27:38;4.40;1.00
1011;DHT22;494;48.744;10.106;2023-12-28T07:30:09;4.40;1.00
1011;DHT22;494;48.744;10.106;2023-12-28T07:32:39;4.40;1.00
1011;DHT22;494;48.744;10.106;2023-12-28T07:35:08;4.60;1.00
1011;DHT22;494;48.744;10.106;2023-12-28T07:37:37;4.60;1.00
1011;DHT22;494;48.744;10.106;2023-12-28T07:40:08;4.80;1.00
1011;DHT22;494;48.744;10.106;2023-12-28T07:42:37;4.80;1.00
1011;DHT22;494;48.744;10.106;2023-12-28T07:45:07;4.90;1.00
1011;DHT22;494;48.744;10.106;2023-12-28T07:47:36;5.00;1.00
1011;DHT22;494;48.744;10.106;2023-12-28T07:50:05;5.10;1.00
1011;DHT22;494;48.744;10.106;2023-12-28T07:52:34;5.20;1.00
1011;DHT22;494;48.744;10.106;2023-12-28T07:55:07;5.40;1.00
1011;DHT22;494;48.744;10.106;2023-12-28T07:57:36;5.40;1.00
1011;DHT22;494;48.744;10.106;2023-12-28T08:00:06;5.50;1.00
1011;DHT22;494;48.744;10.106;2023-12-28T08:02:36;5.70;1.00
1011;DHT22;494;48.744;10.106;2023-12-28T08:05:05;5.90;1.00
1011;DHT22;494;48.744;10.106;2023-12-28T08:07:34;5.80;1.00
1011;DHT22;494;48.744;10.106;2023-12-28T08:10:04;5.90;1.00
1011;DHT22;494;48.744;10.106;2023-12-28T08:12:36;6.00;1.00
1011;DHT22;494;48.744;10.106;2023-12-28T08:15:07;5.80;1.00
1011;DHT22;494;48.744;10.106;2023-12-28T08:17:37;5.90;1.00
1011;DHT22;494;48.744;10.106;2023-12-28T08:20:07;6.20;1.00
1011;DHT22;494;48.744;10.106;2023-12-28T08:22:54;6.30;1.00
1011;DHT22;494;48.744;10.106;2023-12-28T08:25:40;6.30;1.00
1011;DHT22;494;48.744;10.106;2023-12-28T08:28:10;6.30;1.00
1011;DHT22;494;48.744;10.106;2023-12-28T08:30:40;6.30;1.00
1011;DHT22;494;48.744;10.106;2023-12-28T08:33:08;6.50;1.00
1011;DHT22;494;48.744;10.106;2023-12-28T08:35:37;6.50;1.00
1011;DHT22;494;48.744;10.106;2023-12-28T08:38:06;6.60;1.00
1011;DHT22;494;48.744;10.106;2023-12-28T08:40:35;6.70;1.00
1011;DHT22;494;48.744;10.106;2023-12-28T08:43:04;6.70;1.00
1011;DHT22;494;48.744;10.106;2023-12-28T08:45:35;6.70;1.00
1011;DHT22;494;48.744;10.106;2023-12-28T08:48:04;6.80;1.00
1011;DHT22;494;48.744;10.106;2023-12-28T08:50:34;6.80;1.00
1011;DHT22;494;48.744;10.106;2023-12-28T08:53:03;6.90;1.00
1011;DHT22;494;48.744;10.106;2023-12-28T08:55:32;7.00;1.00
1011;DHT22;494;48.744;10.106;2023-12-28T08:58:01;7.00;1.00
1011;DHT22;494;48.744;10.106;2023-12-28T09:00:30;7.00;1.00
1011;DHT22;494;48.744;10.106;2023-12-28T09:03:00;7.10;1.00
1011;DHT22;494;48.744;10.106;2023-12-28T09:05:29;7.10;1.00
1011;DHT22;494;48.744;10.106;2023-12-28T09:07:58;7.20;1.00
1011;DHT22;494;48.744;10.106;2023-12-28T09:10:27;7.20;1.00
1011;DHT22;494;48.744;10.106;2023-12-28T09:12:56;7.20;1.00
1011;DHT22;494;48.744;10.106;2023-12-28T09:15:24;7.30;1.00
1011;DHT22;494;48.744;10.106;2023-12-28T09:17:54;7.30;1.00
1011;DHT22;494;48.744;10.106;2023-12-28T09:20:26;7.40;1.00
1011;DHT22;494;48.744;10.106;2023-12-28T09:22:54;7.40;1.00
1011;DHT22;494;48.744;10.106;2023-12-28T09:25:23;7.50;1.00
1011;DHT22;494;48.744;10.106;2023-12-28T09:27:52;7.50;1.00
1011;DHT22;494;48.744;10.106;2023-12-28T09:30:21;7.50;1.00
1011;DHT22;494;48.744;10.106;2023-12-28T09:32:50;7.60;1.00
1011;DHT22;494;48.744;10.106;2023-12-28T09:35:20;7.60;1.00
1011;DHT22;494;48.744;10.106;2023-12-28T09:37:50;7.60;1.00
1011;DHT22;494;48.744;10.106;2023-12-28T09:40:19;7.70;1.00
1011;DHT22;494;48.744;10.106;2023-12-28T09:42:53;7.80;1.00
1011;DHT22;494;48.744;10.106;2023-12-28T09:45:34;7.90;1.00
1011;DHT22;494;48.744;10.106;2023-12-28T09:48:03;8.00;1.00
1011;DHT22;494;48.744;10.106;2023-12-28T09:50:34;8.00;1.00
1011;DHT22;494;48.744;10.106;2023-12-28T09:53:04;7.90;1.00
1011;DHT22;494;48.744;10.106;2023-12-28T09:55:33;7.90;1.00
1011;DHT22;494;48.744;10.106;2023-12-28T09:58:03;7.90;1.00
1011;DHT22;494;48.744;10.106;2023-12-28T10:00:35;8.00;1.00
1011;DHT22;494;48.744;10.106;2023-12-28T10:03:05;7.90;1.00
1011;DHT22;494;48.744;10.106;2023-12-28T10:05:35;8.00;1.00
1011;DHT22;494;48.744;10.106;2023-12-28T10:08:06;8.00;1.00
1011;DHT22;494;48.744;10.106;2023-12-28T10:10:35;8.10;1.00
1011;DHT22;494;48.744;10.106;2023-12-28T10:13:03;8.10;1.00
1011;DHT22;494;48.744;10.106;2023-12-28T10:15:35;8.20;1.00
1011;DHT22;494;48.744;10.106;2023-12-28T10:18:04;8.30;1.00
1011;DHT22;494;48.744;10.106;2023-12-28T10:20:33;8.40;1.00
1011;DHT22;494;48.744;10.106;2023-12-28T10:23:05;8.40;1.00
1011;DHT22;494;48.744;10.106;2023-12-28T10:25:35;8.50;1.00
1011;DHT22;494;48.744;10.106;2023-12-28T10:28:05;8.60;1.00
1011;DHT22;494;48.744;10.106;2023-12-28T10:30:34;8.60;1.00
1011;DHT22;494;48.744;10.106;2023-12-28T10:33:05;8.60;1.00
1011;DHT22;494;48.744;10.106;2023-12-28T10:35:34;8.60;1.00
1011;DHT22;494;48.744;10.106;2023-12-28T10:38:07;8.60;1.00
1011;DHT22;494;48.744;10.106;2023-12-28T10:40:38;8.70;1.00
1011;DHT22;494;48.744;10.106;2023-12-28T10:43:11;8.70;1.00
1011;DHT22;494;48.744;10.106;2023-12-28T10:45:47;8.80;1.00
1011;DHT22;494;48.744;10.106;2023-12-28T10:48:25;8.80;1.00
1011;DHT22;494;48.744;10.106;2023-12-28T10:51:04;8.90;1.00
1011;DHT22;494;48.744;10.106;2023-12-28T10:53:45;9.00;1.00
1011;DHT22;494;48.744;10.106;2023-12-28T10:56:26;9.10;1.00
1011;DHT22;494;48.744;10.106;2023-12-28T10:59:05;9.10;1.00
1011;DHT22;494;48.744;10.106;2023-12-28T11:01:55;9.10;1.00
1011;DHT22;494;48.744;10.106;2023-12-28T11:04:34;9.10;1.00
1011;DHT22;494;48.744;10.106;2023-12-28T11:07:09;9.20;1.00
1011;DHT22;494;48.744;10.106;2023-12-28T11:09:42;9.30;1.00
1011;DHT22;494;48.744;10.106;2023-12-28T11:12:11;9.20;1.00
1011;DHT22;494;48.744;10.106;2023-12-28T11:14:42;9.20;1.00
1011;DHT22;494;48.744;10.106;2023-12-28T11:17:11;9.10;1.00
1011;DHT22;494;48.744;10.106;2023-12-28T11:19:42;9.10;1.00
1011;DHT22;494;48.744;10.106;2023-12-28T11:22:12;9.10;1.00
1011;DHT22;494;48.744;10.106;2023-12-28T11:24:43;9.20;1.00
1011;DHT22;494;48.744;10.106;2023-12-28T11:27:12;9.20;1.00
1011;DHT22;494;48.744;10.106;2023-12-28T11:29:41;9.20;1.00
1011;DHT22;494;48.744;10.106;2023-12-28T11:32:11;9.40;1.00
1011;DHT22;494;48.744;10.106;2023-12-28T11:34:41;9.40;1.00
1011;DHT22;494;48.744;10.106;2023-12-28T11:37:14;9.40;1.00
1011;DHT22;494;48.744;10.106;2023-12-28T11:39:49;9.40;1.00
1011;DHT22;494;48.744;10.106;2023-12-28T11:42:20;9.50;1.00
1011;DHT22;494;48.744;10.106;2023-12-28T11:44:54;9.60;1.00
1011;DHT22;494;48.744;10.106;2023-12-28T11:47:25;9.80;1.00
1011;DHT22;494;48.744;10.106;2023-12-28T11:49:55;10.00;1.00
1011;DHT22;494;48.744;10.106;2023-12-28T11:52:35;10.00;1.00
1011;DHT22;494;48.744;10.106;2023-12-28T11:55:06;10.20;1.00
1011;DHT22;494;48.744;10.106;2023-12-28T11:57:36;10.30;1.00
1011;DHT22;494;48.744;10.106;2023-12-28T12:00:07;10.40;1.00
1011;DHT22;494;48.744;10.106;2023-12-28T12:02:37;10.60;1.00
1011;DHT22;494;48.744;10.106;2023-12-28T12:05:08;10.80;1.00
1011;DHT22;494;48.744;10.106;2023-12-28T12:07:37;11.20;1.00
1011;DHT22;494;48.744;10.106;2023-12-28T12:10:14;11.50;1.00
1011;DHT22;494;48.744;10.106;2023-12-28T12:12:44;11.80;1.00
1011;DHT22;494;48.744;10.106;2023-12-28T12:15:14;11.80;1.00
1011;DHT22;494;48.744;10.106;2023-12-28T12:17:42;11.80;1.00
1011;DHT22;494;48.744;10.106;2023-12-28T12:20:12;11.80;1.00
1011;DHT22;494;48.744;10.106;2023-12-28T12:22:40;11.70;1.00
1011;DHT22;494;48.744;10.106;2023-12-28T12:25:10;11.50;1.00
1011;DHT22;494;48.744;10.106;2023-12-28T12:27:39;11.30;1.00
1011;DHT22;494;48.744;10.106;2023-12-28T12:30:10;11.20;1.00
1011;DHT22;494;48.744;10.106;2023-12-28T12:32:40;11.00;1.00
1011;DHT22;494;48.744;10.106;2023-12-28T12:35:11;10.90;1.00
1011;DHT22;494;48.744;10.106;2023-12-28T12:37:42;10.90;1.00
1011;DHT22;494;48.744;10.106;2023-12-28T12:40:13;11.00;1.00
1011;DHT22;494;48.744;10.106;2023-12-28T12:42:43;10.90;1.00
1011;DHT22;494;48.744;10.106;2023-12-28T12:45:19;10.80;1.00
1011;DHT22;494;48.744;10.106;2023-12-28T12:47:49;10.80;1.00
1011;DHT22;494;48.744;10.106;2023-12-28T12:50:19;10.80;1.00
1011;DHT22;494;48.744;10.106;2023-12-28T12:52:48;10.70;1.00
1011;DHT22;494;48.744;10.106;2023-12-28T12:55:19;10.70;1.00
1011;DHT22;494;48.744;10.106;2023-12-28T12:57:47;10.80;1.00
1011;DHT22;494;48.744;10.106;2023-12-28T13:00:17;10.90;1.00
1011;DHT22;494;48.744;10.106;2023-12-28T13:02:49;11.00;1.00
1011;DHT22;494;48.744;10.106;2023-12-28T13:05:20;11.00;1.00
1011;DHT22;494;48.744;10.106;2023-12-28T13:07:49;11.00;1.00
1011;DHT22;494;48.744;10.106;2023-12-28T13:10:19;10.90;1.00
1011;DHT22;494;48.744;10.106;2023-12-28T13:12:48;11.00;1.00
1011;DHT22;494;48.744;10.106;2023-12-28T13:15:17;11.00;1.00
1011;DHT22;494;48.744;10.106;2023-12-28T13:17:46;11.00;1.00
1011;DHT22;494;48.744;10.106;2023-12-28T13:20:15;11.00;1.00
1011;DHT22;494;48.744;10.106;2023-12-28T13:22:44;11.00;1.00
1011;DHT22;494;48.744;10.106;2023-12-28T13:25:12;11.10;1.00
1011;DHT22;494;48.744;10.106;2023-12-28T13:27:42;11.20;1.00
1011;DHT22;494;48.744;10.106;2023-12-28T13:30:12;11.20;1.00
1011;DHT22;494;48.744;10.106;2023-12-28T13:32:42;11.10;1.00
1011;DHT22;494;48.744;10.106;2023-12-28T13:35:11;11.10;1.00
1011;DHT22;494;48.744;10.106;2023-12-28T13:37:40;11.10;1.00
1011;DHT22;494;48.744;10.106;2023-12-28T13:40:09;11.10;1.00
1011;DHT22;494;48.744;10.106;2023-12-28T13:42:39;11.10;1.00
1011;DHT22;494;48.744;10.106;2023-12-28T13:45:09;11.20;1.00
1011;DHT22;494;48.744;10.106;2023-12-28T13:47:42;11.10;1.00
1011;DHT22;494;48.744;10.106;2023-12-28T13:50:11;11.20;1.00
1011;DHT22;494;48.744;10.106;2023-12-28T13:52:40;11.20;1.00
1011;DHT22;494;48.744;10.106;2023-12-28T13:55:08;11.20;1.00
1011;DHT22;494;48.744;10.106;2023-12-28T13:57:38;11.20;1.00
1011;DHT22;494;48.744;10.106;2023-12-28T14:00:10;11.20;1.00
1011;DHT22;494;48.744;10.106;2023-12-28T14:02:40;11.20;1.00
1011;DHT22;494;48.744;10.106;2023-12-28T14:05:09;11.20;1.00
1011;DHT22;494;48.744;10.106;2023-12-28T14:07:38;11.20;1.00
1011;DHT22;494;48.744;10.106;2023-12-28T14:10:07;11.10;1.00
1011;DHT22;494;48.744;10.106;2023-12-28T14:12:36;11.20;1.00
1011;DHT22;494;48.744;10.106;2023-12-28T14:15:06;11.20;1.00
1011;DHT22;494;48.744;10.106;2023-12-28T14:17:37;11.20;1.00
1011;DHT22;494;48.744;10.106;2023-12-28T14:20:07;11.20;1.00
1011;DHT22;494;48.744;10.106;2023-12-28T14:22:39;11.30;1.00
1011;DHT22;494;48.744;10.106;2023-12-28T14:25:10;11.20;1.00
1011;DHT22;494;48.744;10.106;2023-12-28T14:27:40;11.20;1.00
1011;DHT22;494;48.744;10.106;2023-12-28T14:30:10;11.20;1.00
1011;DHT22;494;48.744;10.106;2023-12-28T14:32:41;11.10;1.00
1011;DHT22;494;48.744;10.106;2023-12-28T14:35:12;11.10;1.00
1011;DHT22;494;48.744;10.106;2023-12-28T14:37:43;11.10;1.00
1011;DHT22;494;48.744;10.106;2023-12-28T14:40:12;11.00;1.00
1011;DHT22;494;48.744;10.106;2023-12-28T14:42:40;10.90;1.00
1011;DHT22;494;48.744;10.106;2023-12-28T14:45:09;10.90;1.00
1011;DHT22;494;48.744;10.106;2023-12-28T14:47:38;10.80;1.00
1011;DHT22;494;48.744;10.106;2023-12-28T14:50:09;10.70;1.00
1011;DHT22;494;48.744;10.106;2023-12-28T14:52:38;10.70;1.00
1011;DHT22;494;48.744;10.106;2023-12-28T14:55:10;10.60;1.00
1011;DHT22;494;48.744;10.106;2023-12-28T14:57:39;10.50;1.00
1011;DHT22;494;48.744;10.106;2023-12-28T15:00:08;10.50;1.00
1011;DHT22;494;48.744;10.106;2023-12-28T15:02:38;10.40;1.00
1011;DHT22;494;48.744;10.106;2023-12-28T15:05:10;10.30;1.00
1011;DHT22;494;48.744;10.106;2023-12-28T15:07:40;10.30;1.00
1011;DHT22;494;48.744;10.106;2023-12-28T15:10:10;10.20;1.00
1011;DHT22;494;48.744;10.106;2023-12-28T15:12:40;10.30;1.00
1011;DHT22;494;48.744;10.106;2023-12-28T15:15:10;10.30;1.00
1011;DHT22;494;48.744;10.106;2023-12-28T15:17:41;10.20;1.00
1011;DHT22;494;48.744;10.106;2023-12-28T15:20:13;10.20;1.00
1011;DHT22;494;48.744;10.106;2023-12-28T15:22:43;10.30;1.00
1011;DHT22;494;48.744;10.106;2023-12-28T15:25:12;10.30;1.00
1011;DHT22;494;48.744;10.106;2023-12-28T15:27:41;10.30;1.00
1011;DHT22;494;48.744;10.106;2023-12-28T15:30:10;10.20;1.00
1011;DHT22;494;48.744;10.106;2023-12-28T15:32:40;10.20;1.00
1011;DHT22;494;48.744;10.106;2023-12-28T15:35:13;10.30;1.00
1011;DHT22;494;48.744;10.106;2023-12-28T15:37:44;10.20;1.00
1011;DHT22;494;48.744;10.106;2023-12-28T15:40:12;10.20;1.00
1011;DHT22;494;48.744;10.106;2023-12-28T15:42:41;10.10;1.00
1011;DHT22;494;48.744;10.106;2023-12-28T15:45:13;10.10;1.00
1011;DHT22;494;48.744;10.106;2023-12-28T15:47:51;9.90;1.00
1011;DHT22;494;48.744;10.106;2023-12-28T15:50:22;9.80;1.00
1011;DHT22;494;48.744;10.106;2023-12-28T15:52:51;9.70;1.00
1011;DHT22;494;48.744;10.106;2023-12-28T15:55:21;9.70;1.00
1011;DHT22;494;48.744;10.106;2023-12-28T15:57:51;9.60;1.00
1011;DHT22;494;48.744;10.106;2023-12-28T16:00:20;9.60;1.00
1011;DHT22;494;48.744;10.106;2023-12-28T16:02:49;9.60;1.00
1011;DHT22;494;48.744;10.106;2023-12-28T16:05:18;9.60;1.00
1011;DHT22;494;48.744;10.106;2023-12-28T16:07:50;9.60;1.00
1011;DHT22;494;48.744;10.106;2023-12-28T16:10:19;9.60;1.00
1011;DHT22;494;48.744;10.106;2023-12-28T16:12:48;9.60;1.00
1011;DHT22;494;48.744;10.106;2023-12-28T16:15:17;9.60;1.00
1011;DHT22;494;48.744;10.106;2023-12-28T17:20:48;5.40;1.00
1011;DHT22;494;48.744;10.106;2023-12-28T17:23:25;7.50;1.00
1011;DHT22;494;48.744;10.106;2023-12-28T17:26:02;7.70;1.00
1011;DHT22;494;48.744;10.106;2023-12-28T17:28:37;8.00;1.00
1011;DHT22;494;48.744;10.106;2023-12-28T17:31:17;8.20;1.00
1011;DHT22;494;48.744;10.106;2023-12-28T17:33:50;8.30;1.00
1011;DHT22;494;48.744;10.106;2023-12-28T17:36:23;8.40;1.00
1011;DHT22;494;48.744;10.106;2023-12-28T17:38:57;8.50;1.00
1011;DHT22;494;48.744;10.106;2023-12-28T17:41:37;8.60;1.00
1011;DHT22;494;48.744;10.106;2023-12-28T17:44:08;8.50;1.00
1011;DHT22;494;48.744;10.106;2023-12-28T17:46:47;8.50;1.00
1011;DHT22;494;48.744;10.106;2023-12-28T17:49:24;8.50;1.00
1011;DHT22;494;48.744;10.106;2023-12-28T17:51:58;8.60;1.00